Time;durP1;ratioP1;P1;durP2;ratioP2;P2;SDS_P1;SDS_P2;PMS_P1;PMS_P2;Temp;Humidity;BMP_temperature;BMP_pressure;BME280_temperature;BME280_humidity;BME280_pressure;Samples;Min_cycle;Max_cycle;Signal;HPM_P1;HPM_P2
2023/06/12 00:01:02;;;;;;;7.93;7.23;;;20.80;99.90;;;;;;4956298;28;20195;-59
2023/06/12 00:03:31;;;;;;;7.77;7.10;;;20.80;99.90;;;;;;4955177;28;20224;-60
2023/06/12 00:06:01;;;;;;;7.97;7.37;;;20.80;99.90;;;;;;4955822;28;20232;-60
2023/06/12 00:08:33;;;;;;;7.50;6.87;;;20.70;99.90;;;;;;4956393;28;20220;-59
2023/06/12 00:11:07;;;;;;;7.47;6.97;;;20.70;99.90;;;;;;4954742;28;20334;-59
2023/06/12 00:13:35;;;;;;;10.13;7.73;;;20.60;99.90;;;;;;4955009;28;20197;-59
2023/06/12 00:16:03;;;;;;;8.17;7.47;;;20.60;99.90;;;;;;4955165;29;20211;-60
2023/06/12 00:18:32;;;;;;;8.40;7.70;;;20.50;99.90;;;;;;4948154;28;20691;-60
2023/06/12 00:21:01;;;;;;;8.17;7.57;;;20.50;99.90;;;;;;4955361;28;20232;-59
2023/06/12 00:23:31;;;;;;;8.73;8.00;;;20.40;99.90;;;;;;4956628;28;20240;-59
2023/06/12 00:25:59;;;;;;;8.77;8.03;;;20.30;99.90;;;;;;4954673;28;20242;-59
2023/06/12 00:28:27;;;;;;;8.30;7.60;;;20.30;99.90;;;;;;4948447;28;20199;-60
2023/06/12 00:30:55;;;;;;;8.13;7.43;;;20.20;99.90;;;;;;4955909;28;20220;-59
2023/06/12 00:33:24;;;;;;;9.27;7.70;;;20.10;99.90;;;;;;4955189;28;20219;-59
2023/06/12 00:35:52;;;;;;;8.13;7.43;;;20.10;99.90;;;;;;4953934;28;20291;-59
2023/06/12 00:38:21;;;;;;;9.13;7.60;;;20.10;99.90;;;;;;4955015;28;20235;-59
2023/06/12 00:40:51;;;;;;;8.60;7.20;;;20.00;99.90;;;;;;4955048;28;20224;-59
2023/06/12 00:43:19;;;;;;;7.87;7.20;;;20.00;99.90;;;;;;4959130;28;20195;-59
2023/06/12 00:45:48;;;;;;;9.47;8.60;;;19.90;99.90;;;;;;4953372;28;20192;-59
2023/06/12 00:48:17;;;;;;;8.53;7.93;;;19.90;99.90;;;;;;4952222;28;20220;-59
2023/06/12 00:50:47;;;;;;;8.03;7.40;;;19.90;99.90;;;;;;4954239;28;20706;-59
2023/06/12 00:53:15;;;;;;;12.00;8.30;;;19.90;99.90;;;;;;4941624;28;20271;-59
2023/06/12 00:55:43;;;;;;;10.17;9.17;;;19.90;99.90;;;;;;4953649;28;20241;-59
2023/06/12 00:58:13;;;;;;;9.50;8.23;;;19.90;99.90;;;;;;4953770;29;20235;-60
2023/06/12 01:00:41;;;;;;;9.03;8.13;;;19.90;99.90;;;;;;4954927;28;21240;-59
2023/06/12 01:03:13;;;;;;;8.90;8.10;;;19.90;99.90;;;;;;4954482;28;20224;-59
2023/06/12 01:05:44;;;;;;;8.97;8.17;;;19.90;99.90;;;;;;4944712;28;20229;-59
2023/06/12 01:08:22;;;;;;;9.73;8.23;;;19.90;99.90;;;;;;4953552;28;20219;-59
2023/06/12 01:10:53;;;;;;;9.07;8.27;;;19.90;99.90;;;;;;4953104;28;20235;-59
2023/06/12 01:13:23;;;;;;;9.37;8.57;;;19.90;99.90;;;;;;4953183;28;20199;-59
2023/06/12 01:15:52;;;;;;;8.57;7.87;;;19.80;99.90;;;;;;4953907;29;20199;-59
2023/06/12 01:18:21;;;;;;;9.23;8.43;;;19.80;99.90;;;;;;4950924;28;20212;-59
2023/06/12 01:20:50;;;;;;;9.43;8.53;;;19.70;99.90;;;;;;4954012;28;20212;-59
2023/06/12 01:23:43;;;;;;;9.50;8.70;;;19.70;99.90;;;;;;4952390;28;20272;-59
2023/06/12 01:26:39;;;;;;;9.97;9.07;;;19.60;99.90;;;;;;4952916;28;20231;-59
2023/06/12 01:29:47;;;;;;;9.10;8.20;;;19.60;99.90;;;;;;4952072;28;20231;-60
2023/06/12 01:32:17;;;;;;;9.70;8.80;;;19.50;99.90;;;;;;4948554;28;20594;-59
2023/06/12 01:34:51;;;;;;;8.93;8.23;;;19.50;99.90;;;;;;4953409;28;20223;-59
2023/06/12 01:37:27;;;;;;;9.50;8.80;;;19.50;99.90;;;;;;4950341;28;20200;-59
2023/06/12 01:39:58;;;;;;;10.00;9.03;;;19.50;99.90;;;;;;4951947;29;20211;-60
2023/06/12 01:42:28;;;;;;;10.60;9.70;;;19.40;99.90;;;;;;4950647;28;20226;-59
2023/06/12 01:44:57;;;;;;;10.87;9.33;;;19.30;99.90;;;;;;4949235;28;20220;-60
2023/06/12 01:47:26;;;;;;;12.07;9.33;;;19.30;99.90;;;;;;4947551;28;20256;-59
2023/06/12 01:49:56;;;;;;;10.30;9.30;;;19.20;99.90;;;;;;4950764;28;21366;-59
2023/06/12 01:52:24;;;;;;;13.17;10.33;;;19.10;99.90;;;;;;4953195;28;20211;-59
2023/06/12 01:54:53;;;;;;;10.43;9.53;;;19.10;99.90;;;;;;4953050;28;20203;-59
2023/06/12 01:57:21;;;;;;;12.07;9.67;;;19.00;99.90;;;;;;4953615;28;20231;-59
2023/06/12 01:59:51;;;;;;;13.83;10.43;;;19.00;99.90;;;;;;4954125;28;20248;-60
2023/06/12 02:02:20;;;;;;;10.73;9.70;;;18.90;99.90;;;;;;4950479;28;20250;-59
2023/06/12 02:04:50;;;;;;;10.33;9.43;;;18.90;99.90;;;;;;4953666;28;20220;-59
2023/06/12 02:07:18;;;;;;;11.13;10.03;;;18.80;99.90;;;;;;4950124;29;20536;-59
2023/06/12 02:09:47;;;;;;;11.10;10.00;;;18.80;99.90;;;;;;4953278;28;20212;-59
2023/06/12 02:12:15;;;;;;;11.27;10.17;;;18.90;99.90;;;;;;4951236;28;21832;-59
2023/06/12 02:14:43;;;;;;;12.37;11.07;;;18.90;99.90;;;;;;4947255;28;20235;-59
2023/06/12 02:17:13;;;;;;;11.80;10.63;;;18.90;99.90;;;;;;4953683;28;20228;-59
2023/06/12 02:19:42;;;;;;;14.37;10.23;;;18.90;99.90;;;;;;4950585;28;20228;-60
2023/06/12 02:22:12;;;;;;;13.60;11.33;;;18.90;99.90;;;;;;4953349;28;20275;-59
2023/06/12 02:24:40;;;;;;;13.37;10.67;;;18.80;99.90;;;;;;4951385;28;20616;-59
2023/06/12 02:27:10;;;;;;;11.97;10.17;;;18.80;99.90;;;;;;4950337;28;20310;-59
2023/06/12 02:29:38;;;;;;;12.07;10.47;;;18.80;99.90;;;;;;4952637;28;20226;-59
2023/06/12 02:32:07;;;;;;;11.60;10.20;;;18.70;99.90;;;;;;4953963;28;20733;-59
2023/06/12 02:34:36;;;;;;;11.30;10.20;;;18.70;99.90;;;;;;4950155;28;20201;-59
2023/06/12 02:37:08;;;;;;;12.87;9.90;;;18.60;99.90;;;;;;4958119;28;20665;-58
2023/06/12 02:39:41;;;;;;;12.33;11.03;;;18.60;99.90;;;;;;4950356;28;20283;-59
2023/06/12 02:42:10;;;;;;;12.67;11.10;;;18.60;99.90;;;;;;4959659;28;20614;-59
2023/06/12 02:44:38;;;;;;;12.47;11.17;;;18.60;99.90;;;;;;4957431;28;20220;-59
2023/06/12 02:47:07;;;;;;;13.50;12.10;;;18.60;99.90;;;;;;4955827;28;20223;-60
2023/06/12 02:49:37;;;;;;;15.20;12.77;;;18.60;99.90;;;;;;4953922;28;20236;-60
2023/06/12 02:52:06;;;;;;;21.30;14.23;;;18.60;99.90;;;;;;4954774;29;20208;-60
2023/06/12 02:54:35;;;;;;;18.40;13.40;;;18.60;99.90;;;;;;4947710;28;20315;-60
2023/06/12 02:57:05;;;;;;;13.60;12.20;;;18.60;99.90;;;;;;4956615;28;20236;-59
2023/06/12 02:59:33;;;;;;;17.50;12.40;;;18.50;99.90;;;;;;4954492;28;20227;-59
2023/06/12 03:02:02;;;;;;;13.00;11.70;;;18.50;99.90;;;;;;4952523;28;20254;-59
2023/06/12 03:04:32;;;;;;;17.80;12.13;;;18.50;99.90;;;;;;4955355;28;20624;-59
2023/06/12 03:07:06;;;;;;;14.03;12.63;;;18.40;99.90;;;;;;4956039;29;20651;-59
2023/06/12 03:09:35;;;;;;;14.17;12.40;;;18.40;99.90;;;;;;4954079;28;20229;-59
2023/06/12 03:12:05;;;;;;;14.67;11.90;;;18.40;99.90;;;;;;4945135;29;20223;-59
2023/06/12 03:14:33;;;;;;;15.00;11.90;;;18.30;99.90;;;;;;4952864;28;20216;-59
2023/06/12 03:17:02;;;;;;;13.00;11.70;;;18.30;99.90;;;;;;4949904;28;20271;-59
2023/06/12 03:19:30;;;;;;;12.60;11.30;;;18.30;99.90;;;;;;4953416;28;20227;-59
2023/06/12 03:21:58;;;;;;;14.03;11.57;;;18.30;99.90;;;;;;4956769;28;20192;-59
2023/06/12 03:24:29;;;;;;;16.23;12.23;;;18.30;99.90;;;;;;4954879;28;20224;-59
2023/06/12 03:26:58;;;;;;;11.97;10.37;;;18.20;99.90;;;;;;4950879;28;20220;-59
2023/06/12 03:29:28;;;;;;;12.63;11.37;;;18.20;99.90;;;;;;4950481;28;20314;-59
2023/06/12 03:31:57;;;;;;;12.03;10.83;;;18.10;99.90;;;;;;4954804;28;20306;-59
2023/06/12 03:34:25;;;;;;;13.80;11.30;;;18.10;99.90;;;;;;4948066;28;20200;-59
2023/06/12 03:36:54;;;;;;;15.13;12.00;;;18.10;99.90;;;;;;4953498;29;20671;-59
2023/06/12 03:39:22;;;;;;;15.93;11.63;;;18.10;99.90;;;;;;4950504;28;20224;-60
2023/06/12 03:41:56;;;;;;;12.83;11.53;;;18.00;99.90;;;;;;4951939;28;20223;-59
2023/06/12 03:44:24;;;;;;;12.87;11.67;;;18.00;99.90;;;;;;4950302;28;20282;-59
2023/06/12 03:46:54;;;;;;;14.53;11.53;;;18.10;99.90;;;;;;4953265;28;20282;-59
2023/06/12 03:49:23;;;;;;;14.03;11.83;;;18.10;99.90;;;;;;4951888;28;20259;-59
2023/06/12 03:51:51;;;;;;;13.07;11.50;;;18.00;99.90;;;;;;4953779;28;20269;-59
2023/06/12 03:54:20;;;;;;;13.70;12.30;;;18.00;99.90;;;;;;4954452;28;20306;-59
2023/06/12 03:56:48;;;;;;;14.20;12.30;;;18.00;99.90;;;;;;4949709;28;20302;-59
2023/06/12 03:59:18;;;;;;;13.87;11.80;;;18.00;99.90;;;;;;4952613;28;20224;-59
2023/06/12 04:01:48;;;;;;;12.10;11.00;;;18.00;99.90;;;;;;4953918;28;20616;-59
2023/06/12 04:04:18;;;;;;;12.47;11.20;;;18.00;99.90;;;;;;4953770;29;20856;-59
2023/06/12 04:06:47;;;;;;;14.50;11.90;;;18.00;99.90;;;;;;4953830;28;20242;-59
2023/06/12 04:09:15;;;;;;;14.23;11.53;;;18.00;99.90;;;;;;4953173;28;20227;-59
2023/06/12 04:11:44;;;;;;;13.80;11.63;;;18.00;99.90;;;;;;4953396;28;20225;-60
2023/06/12 04:14:12;;;;;;;13.90;11.87;;;18.00;99.90;;;;;;4950998;28;20230;-59
2023/06/12 04:16:40;;;;;;;17.67;14.03;;;18.00;99.90;;;;;;4953243;28;20822;-60
2023/06/12 04:19:09;;;;;;;17.00;13.63;;;18.00;99.90;;;;;;4951342;29;20223;-59
2023/06/12 04:21:39;;;;;;;18.37;13.70;;;18.00;99.90;;;;;;4952083;28;20868;-59
2023/06/12 04:24:13;;;;;;;17.20;14.47;;;18.00;99.90;;;;;;4955025;28;20228;-59
2023/06/12 04:26:43;;;;;;;18.77;15.00;;;18.00;99.90;;;;;;4955375;28;20235;-59
2023/06/12 04:29:12;;;;;;;19.03;15.20;;;18.10;99.90;;;;;;4949318;28;20319;-59
2023/06/12 04:31:40;;;;;;;22.27;16.87;;;18.10;99.90;;;;;;4948692;28;20580;-59
2023/06/12 04:34:09;;;;;;;19.87;16.67;;;18.20;99.90;;;;;;4945347;29;20227;-59
2023/06/12 04:36:39;;;;;;;20.77;17.03;;;18.20;99.90;;;;;;4955514;28;20227;-59
2023/06/12 04:39:10;;;;;;;20.87;17.60;;;18.30;99.90;;;;;;4953876;28;20227;-59
2023/06/12 04:41:41;;;;;;;20.57;18.10;;;18.40;99.90;;;;;;4952307;28;20224;-59
2023/06/12 04:44:09;;;;;;;20.47;17.60;;;18.50;99.90;;;;;;4953442;28;20231;-59
2023/06/12 04:46:37;;;;;;;21.87;17.50;;;18.60;99.90;;;;;;4956144;28;20234;-60
2023/06/12 04:49:05;;;;;;;21.57;18.30;;;18.70;99.90;;;;;;4955423;28;20192;-59
2023/06/12 04:51:35;;;;;;;21.17;16.83;;;18.80;99.90;;;;;;4952783;28;20224;-59
2023/06/12 04:54:05;;;;;;;22.63;17.97;;;18.90;99.90;;;;;;4947030;28;20691;-59
2023/06/12 04:56:33;;;;;;;20.23;17.33;;;19.00;99.90;;;;;;4955188;28;20227;-60
2023/06/12 04:59:02;;;;;;;21.60;18.03;;;19.20;99.90;;;;;;4946605;28;20235;-59
2023/06/12 05:01:30;;;;;;;22.43;17.87;;;19.30;99.90;;;;;;4953508;28;20204;-60
2023/06/12 05:03:59;;;;;;;19.93;15.73;;;19.40;99.90;;;;;;4959782;28;20645;-60
2023/06/12 05:06:28;;;;;;;20.13;16.67;;;19.50;99.90;;;;;;4951204;28;20224;-59
2023/06/12 05:08:56;;;;;;;19.07;15.27;;;19.50;99.90;;;;;;4949373;28;20224;-60
2023/06/12 05:11:26;;;;;;;28.20;15.10;;;19.60;99.90;;;;;;4950812;28;20574;-59
2023/06/12 05:13:55;;;;;;;18.13;13.50;;;19.70;99.90;;;;;;4948839;28;20231;-60
2023/06/12 05:16:23;;;;;;;20.43;13.93;;;19.70;99.90;;;;;;4950502;28;20560;-59
2023/06/12 05:18:52;;;;;;;15.70;12.30;;;19.80;99.90;;;;;;4951757;29;20238;-59
2023/06/12 05:21:20;;;;;;;17.40;13.00;;;19.80;99.90;;;;;;4951698;28;20686;-59
2023/06/12 05:23:50;;;;;;;15.10;13.50;;;19.80;99.90;;;;;;4951194;28;20235;-59
2023/06/12 05:26:18;;;;;;;18.50;13.27;;;19.80;99.90;;;;;;4950460;28;20548;-60
2023/06/12 05:28:48;;;;;;;15.17;12.20;;;19.70;99.90;;;;;;4952820;28;20232;-59
2023/06/12 05:31:17;;;;;;;17.20;13.17;;;19.80;99.90;;;;;;4953151;28;20207;-60
2023/06/12 05:33:46;;;;;;;14.10;11.80;;;19.70;99.90;;;;;;4950151;29;20224;-59
2023/06/12 05:36:14;;;;;;;14.87;12.00;;;19.80;99.90;;;;;;4950407;28;20216;-59
2023/06/12 05:38:46;;;;;;;17.53;12.23;;;19.90;99.90;;;;;;4951909;28;20310;-60
2023/06/12 05:41:15;;;;;;;13.07;11.63;;;20.00;99.90;;;;;;4951524;28;20227;-59
2023/06/12 05:43:45;;;;;;;15.87;11.13;;;20.20;99.90;;;;;;4949657;28;20239;-59
2023/06/12 05:46:15;;;;;;;12.83;10.50;;;20.30;99.90;;;;;;4951961;29;20224;-59
2023/06/12 05:48:44;;;;;;;11.00;9.90;;;20.40;99.90;;;;;;4949224;28;20228;-59
2023/06/12 05:51:12;;;;;;;10.40;9.40;;;20.60;99.90;;;;;;4950938;28;20223;-59
2023/06/12 05:53:44;;;;;;;13.10;9.03;;;20.80;99.90;;;;;;4954209;28;20227;-59
2023/06/12 05:56:13;;;;;;;8.73;7.93;;;21.10;99.90;;;;;;4953904;28;20220;-59
2023/06/12 05:58:42;;;;;;;10.43;8.10;;;21.20;99.90;;;;;;4950478;28;20236;-59
2023/06/12 06:01:11;;;;;;;9.97;8.80;;;21.40;99.90;;;;;;4953586;28;20188;-59
2023/06/12 06:03:42;;;;;;;12.07;8.00;;;21.50;99.90;;;;;;4951341;28;20608;-60
2023/06/12 06:06:13;;;;;;;9.80;8.03;;;21.60;99.90;;;;;;4952343;28;20228;-60
2023/06/12 06:08:42;;;;;;;7.50;6.90;;;21.80;99.90;;;;;;4952077;28;20705;-60
2023/06/12 06:11:10;;;;;;;8.97;7.63;;;21.90;99.90;;;;;;4956640;28;20310;-60
2023/06/12 06:13:42;;;;;;;9.23;7.47;;;22.00;99.90;;;;;;4957256;28;20212;-60
2023/06/12 06:16:10;;;;;;;13.70;7.63;;;22.20;99.90;;;;;;4952080;29;20207;-60
2023/06/12 06:18:40;;;;;;;7.50;6.77;;;22.30;99.90;;;;;;4955887;28;20228;-59
2023/06/12 06:21:11;;;;;;;9.77;6.93;;;22.40;99.90;;;;;;4956676;28;20228;-59
2023/06/12 06:23:40;;;;;;;9.50;7.30;;;22.50;99.90;;;;;;4958325;28;20208;-60
2023/06/12 06:26:15;;;;;;;7.20;6.47;;;22.70;99.90;;;;;;4957943;28;20228;-59
2023/06/12 06:28:44;;;;;;;6.93;6.20;;;22.80;99.90;;;;;;4950461;28;20227;-59
2023/06/12 06:31:23;;;;;;;7.10;6.40;;;22.90;99.90;;;;;;4958334;28;20196;-59
2023/06/12 06:33:56;;;;;;;7.83;7.07;;;22.90;99.90;;;;;;4953168;29;20204;-59
2023/06/12 06:36:24;;;;;;;7.60;6.50;;;23.10;99.90;;;;;;4953198;28;20307;-59
2023/06/12 06:38:52;;;;;;;7.23;6.60;;;23.20;99.90;;;;;;4954279;28;20220;-59
2023/06/12 06:41:21;;;;;;;6.97;6.10;;;23.30;99.90;;;;;;4957690;28;20219;-59
2023/06/12 06:43:49;;;;;;;9.60;6.60;;;23.50;99.90;;;;;;4957736;28;20227;-59
2023/06/12 06:46:17;;;;;;;9.37;7.13;;;23.70;99.90;;;;;;4958121;28;20209;-59
2023/06/12 06:48:45;;;;;;;7.97;6.37;;;23.90;99.90;;;;;;4957250;29;20292;-59
2023/06/12 06:51:15;;;;;;;13.70;6.50;;;24.10;99.90;;;;;;4957131;28;20246;-59
2023/06/12 06:53:44;;;;;;;6.87;6.13;;;24.10;99.90;;;;;;4956999;28;20234;-59
2023/06/12 06:56:12;;;;;;;7.73;6.20;;;24.10;99.90;;;;;;4962005;28;20218;-60
2023/06/12 06:58:40;;;;;;;6.60;5.80;;;24.20;99.90;;;;;;4954105;28;20235;-59
2023/06/12 07:01:08;;;;;;;9.80;6.90;;;24.30;99.90;;;;;;4949386;29;20199;-59
2023/06/12 07:03:37;;;;;;;8.37;5.83;;;24.50;99.90;;;;;;4957910;28;20226;-59
2023/06/12 07:06:06;;;;;;;6.10;5.47;;;24.60;99.90;;;;;;4957661;28;20218;-59
2023/06/12 07:08:36;;;;;;;7.53;5.90;;;24.70;99.90;;;;;;4957184;28;20241;-60
2023/06/12 07:11:04;;;;;;;6.30;5.77;;;24.70;99.90;;;;;;4957710;28;20226;-59
2023/06/12 07:13:32;;;;;;;7.10;6.13;;;24.70;99.90;;;;;;4956710;28;20679;-60
2023/06/12 07:16:01;;;;;;;8.90;5.93;;;24.70;99.90;;;;;;4957027;28;20191;-60
2023/06/12 07:18:29;;;;;;;8.33;5.60;;;24.90;99.90;;;;;;4956756;28;20218;-59
2023/06/12 07:20:58;;;;;;;10.73;5.57;;;24.90;99.90;;;;;;4955625;28;20235;-59
2023/06/12 07:23:26;;;;;;;6.97;5.83;;;25.00;99.90;;;;;;4954574;28;20223;-59
2023/06/12 07:25:56;;;;;;;12.77;5.47;;;25.20;99.90;;;;;;4956325;28;20253;-60
2023/06/12 07:28:24;;;;;;;6.87;5.83;;;25.30;99.90;;;;;;4955706;28;20200;-59
2023/06/12 07:30:52;;;;;;;6.53;5.30;;;25.50;99.90;;;;;;4957129;29;20203;-59
2023/06/12 07:33:21;;;;;;;7.53;5.87;;;25.60;99.90;;;;;;4956835;28;20228;-59
2023/06/12 07:35:49;;;;;;;8.80;6.07;;;25.70;99.90;;;;;;4956924;28;20226;-59
2023/06/12 07:38:18;;;;;;;7.37;5.30;;;25.70;99.90;;;;;;4948060;28;20844;-59
2023/06/12 07:40:46;;;;;;;11.13;5.67;;;25.90;99.90;;;;;;4956654;28;20216;-59
2023/06/12 07:43:16;;;;;;;8.37;6.00;;;26.00;99.90;;;;;;4955403;29;20192;-59
2023/06/12 07:45:46;;;;;;;10.37;6.07;;;26.00;99.90;;;;;;4955405;29;20232;-60
2023/06/12 07:48:14;;;;;;;9.30;5.77;;;26.10;99.90;;;;;;4953818;28;20232;-60
2023/06/12 07:50:42;;;;;;;12.83;6.03;;;26.20;99.90;;;;;;4955358;28;20230;-59
2023/06/12 07:53:11;;;;;;;10.10;5.83;;;26.40;99.90;;;;;;4955217;28;20220;-60
2023/06/12 07:56:00;;;;;;;6.30;5.70;;;26.50;99.90;;;;;;4953609;29;20283;-60
2023/06/12 07:58:31;;;;;;;6.50;5.90;;;26.60;99.90;;;;;;4956011;28;20228;-60
2023/06/12 08:00:59;;;;;;;7.93;5.60;;;26.70;99.90;;;;;;4957141;28;20200;-60
2023/06/12 08:03:28;;;;;;;6.73;5.97;;;26.80;99.90;;;;;;4956613;28;20664;-59
2023/06/12 08:05:59;;;;;;;9.27;5.67;;;26.90;99.90;;;;;;4944015;28;20227;-60
2023/06/12 08:08:39;;;;;;;9.63;5.50;;;27.00;99.90;;;;;;4955487;28;20228;-60
2023/06/12 08:11:08;;;;;;;5.33;4.97;;;27.00;99.90;;;;;;4956114;28;20219;-60
2023/06/12 08:13:38;;;;;;;6.30;5.63;;;27.10;99.90;;;;;;4956565;28;20204;-59
2023/06/12 08:16:07;;;;;;;5.80;5.30;;;27.10;99.90;;;;;;4957005;28;20615;-60
2023/06/12 08:18:36;;;;;;;9.30;5.73;;;27.20;99.90;;;;;;4955975;28;20231;-60
2023/06/12 08:21:04;;;;;;;6.00;5.43;;;27.30;99.90;;;;;;4955525;28;20220;-60
2023/06/12 08:23:33;;;;;;;5.63;5.17;;;27.30;99.90;;;;;;4956099;28;20312;-59
2023/06/12 08:26:04;;;;;;;6.75;5.47;;;27.50;99.90;;;;;;4956406;28;20238;-60
2023/06/12 08:28:34;;;;;;;6.32;5.28;;;27.70;99.90;;;;;;4956388;28;20205;-60
2023/06/12 08:31:04;;;;;;;5.45;5.00;;;27.90;99.90;;;;;;4956663;28;20189;-60
2023/06/12 08:33:32;;;;;;;6.70;5.38;;;28.10;99.90;;;;;;4955527;28;20231;-59
2023/06/12 08:36:01;;;;;;;5.80;5.05;;;28.30;99.90;;;;;;4956977;28;20225;-61
2023/06/12 08:38:30;;;;;;;5.20;4.80;;;28.50;99.90;;;;;;4956199;28;20583;-60
2023/06/12 08:41:02;;;;;;;5.40;4.90;;;28.50;99.90;;;;;;4955242;28;20224;-60
2023/06/12 08:43:31;;;;;;;5.80;4.85;;;28.50;99.90;;;;;;4956299;28;20199;-60
2023/06/12 08:46:04;;;;;;;5.80;5.20;;;28.50;99.90;;;;;;4956738;28;20204;-60
2023/06/12 08:48:34;;;;;;;5.30;4.80;;;28.50;99.90;;;;;;4948760;28;20226;-59
2023/06/12 08:51:03;;;;;;;5.20;4.80;;;28.60;99.90;;;;;;4955949;28;20231;-60
2023/06/12 08:53:33;;;;;;;5.20;4.70;;;28.60;99.90;;;;;;4955809;28;20235;-60
2023/06/12 08:56:02;;;;;;;7.70;4.80;;;28.80;99.90;;;;;;4954931;28;20575;-60
2023/06/12 08:58:30;;;;;;;6.53;5.25;;;28.80;99.90;;;;;;4955136;28;20230;-60
2023/06/12 09:00:59;;;;;;;5.43;4.82;;;29.00;99.90;;;;;;4955085;28;20208;-61
2023/06/12 09:03:31;;;;;;;5.78;5.25;;;29.00;99.90;;;;;;4945546;28;20223;-60
2023/06/12 09:06:04;;;;;;;5.25;4.93;;;29.10;99.90;;;;;;4954235;28;20628;-61
2023/06/12 09:08:35;;;;;;;5.72;4.55;;;29.10;99.90;;;;;;4954626;28;20272;-60
2023/06/12 09:11:04;;;;;;;6.15;5.07;;;29.40;99.90;;;;;;4954270;28;20226;-60
2023/06/12 09:13:41;;;;;;;4.72;4.43;;;29.70;99.90;;;;;;4953944;28;20195;-60
2023/06/12 09:16:12;;;;;;;6.18;4.68;;;29.70;99.60;;;;;;4950832;29;20230;-60
2023/06/12 09:18:52;;;;;;;10.05;4.45;;;29.90;99.90;;;;;;4955113;28;20226;-60
2023/06/12 09:21:23;;;;;;;5.47;5.00;;;30.00;98.70;;;;;;4948590;28;20240;-60
2023/06/12 09:23:52;;;;;;;7.00;4.57;;;30.00;99.20;;;;;;4954715;28;20227;-60
2023/06/12 09:26:22;;;;;;;4.95;4.43;;;30.10;99.90;;;;;;4953938;28;20235;-60
2023/06/12 09:28:52;;;;;;;5.40;4.20;;;30.20;96.80;;;;;;4953661;28;20693;-61
2023/06/12 09:31:20;;;;;;;4.95;4.50;;;30.40;98.70;;;;;;4954151;28;20555;-60
2023/06/12 09:33:53;;;;;;;6.03;4.75;;;30.50;98.60;;;;;;4954392;29;20207;-60
2023/06/12 09:36:27;;;;;;;4.53;4.13;;;30.60;96.60;;;;;;4951451;28;20223;-61
2023/06/12 09:38:56;;;;;;;7.70;3.88;;;30.70;98.60;;;;;;4953182;28;20305;-60
2023/06/12 09:41:25;;;;;;;4.43;4.03;;;30.90;93.80;;;;;;4952672;28;20231;-60
2023/06/12 09:44:00;;;;;;;4.63;4.00;;;31.10;95.70;;;;;;4945164;28;20235;-59
2023/06/12 09:46:29;;;;;;;5.82;4.47;;;31.20;92.90;;;;;;4949805;28;20182;-60
2023/06/12 09:48:59;;;;;;;5.40;4.30;;;31.20;94.80;;;;;;4955384;28;20191;-60
2023/06/12 09:51:28;;;;;;;5.57;3.80;;;31.50;94.30;;;;;;4949862;28;20634;-60
2023/06/12 09:53:58;;;;;;;6.35;4.70;;;31.60;91.00;;;;;;4954715;28;20311;-60
2023/06/12 09:56:27;;;;;;;4.47;4.05;;;31.70;92.30;;;;;;4949751;28;20719;-60
2023/06/12 09:58:57;;;;;;;4.40;4.00;;;31.60;89.40;;;;;;4954486;28;20698;-60
2023/06/12 10:01:26;;;;;;;7.82;4.10;;;31.70;90.80;;;;;;4954380;28;20748;-61
2023/06/12 10:03:59;;;;;;;4.18;3.83;;;31.70;90.30;;;;;;4955324;28;20209;-61
2023/06/12 10:06:29;;;;;;;3.95;3.42;;;31.60;90.50;;;;;;4935964;28;20249;-61
2023/06/12 10:08:58;;;;;;;4.15;3.78;;;31.60;83.90;;;;;;4950774;28;20223;-60
2023/06/12 10:11:26;;;;;;;4.10;3.90;;;31.60;86.90;;;;;;4954509;28;20316;-61
2023/06/12 10:13:56;;;;;;;5.55;4.20;;;31.80;85.70;;;;;;4953414;28;20646;-61
2023/06/12 10:16:25;;;;;;;4.63;4.18;;;31.80;88.80;;;;;;4953631;28;20309;-61
2023/06/12 10:18:56;;;;;;;4.10;3.80;;;31.80;87.40;;;;;;4954692;28;20289;-61
2023/06/12 10:21:28;;;;;;;4.18;3.88;;;31.90;86.80;;;;;;4952985;28;20248;-61
2023/06/12 10:23:57;;;;;;;4.72;4.07;;;32.10;85.20;;;;;;4953105;28;20228;-60
2023/06/12 10:26:26;;;;;;;4.25;3.95;;;32.10;84.60;;;;;;4954299;28;20232;-61
2023/06/12 10:28:56;;;;;;;5.22;3.65;;;32.10;89.00;;;;;;4954239;28;20717;-61
2023/06/12 10:31:25;;;;;;;4.35;3.95;;;32.10;86.00;;;;;;4948374;28;20201;-61
2023/06/12 10:34:03;;;;;;;4.20;3.63;;;32.20;81.30;;;;;;4945629;29;20609;-60
2023/06/12 10:36:39;;;;;;;6.10;3.90;;;32.30;85.20;;;;;;4949737;28;20602;-61
2023/06/12 10:39:16;;;;;;;4.75;3.83;;;32.40;84.20;;;;;;4947197;28;20225;-61
2023/06/12 10:41:55;;;;;;;4.22;3.83;;;32.70;82.80;;;;;;4938319;28;20227;-61
2023/06/12 10:44:41;;;;;;;4.38;3.55;;;32.80;82.70;;;;;;4951503;28;20228;-61
2023/06/12 10:47:28;;;;;;;4.53;3.90;;;32.70;82.70;;;;;;4952353;28;20231;-61
2023/06/12 10:49:58;;;;;;;4.38;4.07;;;32.80;82.20;;;;;;4953851;28;20224;-61
2023/06/12 10:52:29;;;;;;;5.57;3.85;;;32.80;79.30;;;;;;4953720;28;20583;-61
2023/06/12 10:55:19;;;;;;;4.40;4.10;;;32.90;80.50;;;;;;4955036;28;20298;-61
2023/06/12 10:57:52;;;;;;;3.90;3.70;;;32.90;77.50;;;;;;4942493;29;20227;-61
2023/06/12 11:00:22;;;;;;;4.20;3.90;;;32.80;79.20;;;;;;4957607;28;20247;-61
2023/06/12 11:02:59;;;;;;;7.57;3.83;;;33.00;78.30;;;;;;4957787;28;20227;-62
2023/06/12 11:05:28;;;;;;;3.88;3.67;;;33.00;80.00;;;;;;4957212;28;20230;-61
2023/06/12 11:08:00;;;;;;;3.90;3.60;;;33.00;75.50;;;;;;4952061;28;20601;-60
2023/06/12 11:10:30;;;;;;;4.03;3.72;;;33.10;78.00;;;;;;4945447;28;20234;-61
2023/06/12 11:13:02;;;;;;;6.93;4.00;;;33.00;73.40;;;;;;4958039;28;20217;-61
2023/06/12 11:15:33;;;;;;;4.60;4.10;;;33.20;70.00;;;;;;4956670;28;20229;-61
2023/06/12 11:18:03;;;;;;;3.67;3.47;;;33.20;71.70;;;;;;4957635;28;20230;-61
2023/06/12 11:20:33;;;;;;;5.47;3.97;;;33.00;71.30;;;;;;4957103;28;20261;-60
2023/06/12 11:23:03;;;;;;;4.45;4.07;;;32.90;73.30;;;;;;4957408;28;20286;-60
2023/06/12 11:25:35;;;;;;;5.07;3.90;;;32.90;72.50;;;;;;4957787;28;20213;-61
2023/06/12 11:28:07;;;;;;;3.88;3.67;;;32.90;76.40;;;;;;4957317;29;20204;-61
2023/06/12 11:30:35;;;;;;;6.60;4.22;;;32.90;74.70;;;;;;4956742;28;20230;-61
2023/06/12 11:33:14;;;;;;;4.82;4.40;;;32.70;75.80;;;;;;4955947;28;20231;-60
2023/06/12 11:35:43;;;;;;;5.28;4.20;;;32.70;77.60;;;;;;4953045;28;20231;-60
2023/06/12 11:38:16;;;;;;;4.95;4.20;;;32.70;74.50;;;;;;4962187;28;20228;-60
2023/06/12 11:40:47;;;;;;;5.07;4.10;;;32.50;71.70;;;;;;4938199;28;20310;-60
2023/06/12 11:43:17;;;;;;;4.22;3.92;;;32.50;76.30;;;;;;4948086;29;20207;-60
2023/06/12 11:45:45;;;;;;;3.92;3.63;;;32.80;75.00;;;;;;4959376;28;20227;-61
2023/06/12 11:48:16;;;;;;;3.80;3.60;;;32.90;73.50;;;;;;4955218;28;20687;-60
2023/06/12 11:50:49;;;;;;;4.35;4.03;;;32.90;75.40;;;;;;4960523;28;20220;-60
2023/06/12 11:53:20;;;;;;;4.57;4.18;;;32.80;72.20;;;;;;4962505;28;20228;-61
2023/06/12 11:55:50;;;;;;;4.65;4.25;;;32.80;73.80;;;;;;4956599;28;20625;-61
2023/06/12 11:58:21;;;;;;;5.03;3.78;;;32.70;73.70;;;;;;4955238;28;20279;-60
2023/06/12 12:00:51;;;;;;;4.30;4.00;;;32.70;75.40;;;;;;4956298;28;20200;-60
2023/06/12 12:03:21;;;;;;;3.97;3.78;;;32.60;71.50;;;;;;4953458;28;20303;-61
2023/06/12 12:05:51;;;;;;;4.28;4.00;;;32.60;74.90;;;;;;4964233;28;20592;-60
2023/06/12 12:08:27;;;;;;;4.65;4.25;;;32.70;72.90;;;;;;4954408;28;20232;-60
2023/06/12 12:10:55;;;;;;;4.22;3.97;;;32.70;73.60;;;;;;4956122;28;20740;-61
2023/06/12 12:13:23;;;;;;;6.15;4.63;;;32.60;71.60;;;;;;4962378;28;20188;-60
2023/06/12 12:15:52;;;;;;;4.43;4.13;;;32.60;73.20;;;;;;4956380;28;20201;-60
2023/06/12 12:18:21;;;;;;;6.75;4.18;;;32.70;75.00;;;;;;4951734;28;20224;-60
2023/06/12 12:20:50;;;;;;;5.40;4.30;;;32.90;74.40;;;;;;4954755;28;20216;-60
2023/06/12 12:23:26;;;;;;;4.68;4.32;;;32.80;78.70;;;;;;4958779;28;20224;-60
2023/06/12 12:25:55;;;;;;;5.50;4.22;;;32.80;76.80;;;;;;4953646;28;20228;-60
2023/06/12 12:28:23;;;;;;;4.82;4.32;;;32.90;76.50;;;;;;4955282;28;20193;-63
2023/06/12 12:30:51;;;;;;;4.43;4.13;;;33.10;74.50;;;;;;4960317;28;20457;-60
2023/06/12 12:33:19;;;;;;;4.45;4.13;;;32.90;73.20;;;;;;4954425;28;20220;-64
2023/06/12 12:35:48;;;;;;;7.53;4.78;;;32.70;77.90;;;;;;4952126;28;20226;-59
2023/06/12 12:38:16;;;;;;;5.82;4.35;;;32.80;77.90;;;;;;4944206;28;20230;-60
2023/06/12 12:40:46;;;;;;;4.65;4.25;;;32.80;72.60;;;;;;4951883;28;20246;-59
2023/06/12 12:43:14;;;;;;;5.78;4.47;;;32.60;72.20;;;;;;4950747;28;20678;-60
2023/06/12 12:45:43;;;;;;;5.68;4.53;;;32.70;77.90;;;;;;4953098;28;20224;-60
2023/06/12 12:48:12;;;;;;;5.53;4.43;;;32.90;76.40;;;;;;4952308;28;20228;-60
2023/06/12 12:50:40;;;;;;;5.68;4.30;;;33.00;76.00;;;;;;4953689;28;20223;-60
2023/06/12 12:53:28;;;;;;;4.72;4.32;;;33.00;70.70;;;;;;4953441;28;20287;-60
2023/06/12 12:55:58;;;;;;;6.47;4.30;;;33.00;76.50;;;;;;4952447;28;20228;-60